Time;durP1;ratioP1;P1;durP2;ratioP2;P2;SDS_P1;SDS_P2;PMS_P1;PMS_P2;Temp;Humidity;BMP_temperature;BMP_pressure;BME280_temperature;BME280_humidity;BME280_pressure;Samples;Min_cycle;Max_cycle;Signal;HPM_P1;HPM_P2
2022/04/23 00:00:58;;;;;;;75.50;39.38;;;8.80;99.90;;;;;;5215258;28;20048;-76
2022/04/23 00:03:31;;;;;;;65.25;38.05;;;8.80;99.90;;;;;;5221193;28;20048;-77
2022/04/23 00:06:05;;;;;;;64.97;37.95;;;8.80;99.90;;;;;;5219550;28;20128;-75
2022/04/23 00:08:38;;;;;;;69.95;39.58;;;8.80;99.90;;;;;;5234859;28;20362;-77
2022/04/23 00:11:10;;;;;;;69.63;39.35;;;8.80;99.90;;;;;;5220344;28;20047;-75
2022/04/23 00:13:43;;;;;;;68.07;38.65;;;8.80;99.90;;;;;;5221342;28;20057;-76
2022/04/23 00:16:15;;;;;;;68.10;39.38;;;8.80;99.90;;;;;;5221992;28;20068;-75
2022/04/23 00:18:51;;;;;;;64.93;37.72;;;8.70;99.90;;;;;;5219705;28;20048;-75
2022/04/23 00:21:23;;;;;;;;;;;8.80;99.90;;;;;;5215784;28;20033;-75
2022/04/23 00:23:56;;;;;;;66.20;35.20;;;8.70;99.90;;;;;;5222002;28;19921;-75
2022/04/23 00:26:28;;;;;;;60.65;35.22;;;8.70;99.90;;;;;;5217007;28;20045;-77
2022/04/23 00:29:01;;;;;;;67.50;38.83;;;8.70;99.90;;;;;;5214319;28;20563;-75
2022/04/23 00:31:34;;;;;;;66.55;37.83;;;8.70;99.90;;;;;;5217312;28;20055;-75
2022/04/23 00:34:07;;;;;;;;;;;8.70;99.90;;;;;;5221315;28;20060;-76
2022/04/23 00:36:39;;;;;;;69.75;37.67;;;8.60;99.90;;;;;;5207812;28;19925;-76
2022/04/23 00:39:11;;;;;;;69.88;39.38;;;8.50;99.90;;;;;;5221851;28;20060;-76
2022/04/23 00:41:45;;;;;;;70.40;39.38;;;8.50;99.90;;;;;;5219151;28;20041;-75
2022/04/23 00:44:18;;;;;;;;;;;8.50;99.90;;;;;;5223146;28;20071;-76
2022/04/23 00:46:50;;;;;;;62.15;35.42;;;8.50;99.90;;;;;;5218533;28;19921;-76
2022/04/23 00:49:23;;;;;;;65.38;36.72;;;8.50;99.90;;;;;;5217827;28;20041;-76
2022/04/23 00:51:55;;;;;;;61.60;36.35;;;8.50;99.90;;;;;;5216866;28;20056;-77
2022/04/23 00:54:28;;;;;;;65.07;35.53;;;8.50;99.90;;;;;;5218929;28;20044;-76
2022/04/23 00:57:01;;;;;;;61.30;35.15;;;8.40;99.90;;;;;;5219750;28;20515;-76
2022/04/23 00:59:34;;;;;;;63.63;36.87;;;8.40;99.90;;;;;;5220879;28;20043;-76
2022/04/23 01:02:08;;;;;;;62.08;34.88;;;8.40;99.90;;;;;;5220187;22;20042;-73
2022/04/23 01:04:40;;;;;;;;;;;8.50;99.90;;;;;;5176469;28;20409;-74
2022/04/23 01:07:13;;;;;;;57.22;32.28;;;8.40;99.90;;;;;;5177618;28;19925;-73
2022/04/23 01:09:45;;;;;;;56.85;31.88;;;8.40;99.90;;;;;;5188275;28;20050;-73
2022/04/23 01:12:19;;;;;;;59.03;34.05;;;8.40;99.90;;;;;;5174687;28;20054;-73
2022/04/23 01:15:10;;;;;;;53.70;31.52;;;8.40;99.90;;;;;;5176593;28;20053;-74
2022/04/23 01:17:43;;;;;;;55.22;30.60;;;8.40;99.90;;;;;;5178604;28;20614;-74
2022/04/23 01:20:16;;;;;;;55.63;30.90;;;8.40;99.90;;;;;;5178782;28;20037;-75
2022/04/23 01:22:49;;;;;;;54.15;31.48;;;8.30;99.90;;;;;;5176887;28;20304;-74
2022/04/23 01:25:23;;;;;;;57.30;32.25;;;8.30;99.90;;;;;;5176106;28;20494;-74
2022/04/23 01:27:56;;;;;;;58.85;32.60;;;8.20;99.90;;;;;;5190307;28;20045;-74
2022/04/23 01:30:28;;;;;;;56.53;31.23;;;8.20;99.90;;;;;;5176773;28;20904;-74
2022/04/23 01:33:00;;;;;;;52.33;29.67;;;8.30;99.90;;;;;;5181052;28;20053;-75
2022/04/23 01:35:33;;;;;;;56.58;31.33;;;8.30;99.90;;;;;;5182441;28;20054;-74
2022/04/23 01:38:05;;;;;;;57.15;32.13;;;8.20;99.90;;;;;;5172992;28;20042;-75
2022/04/23 01:40:38;;;;;;;54.70;31.08;;;8.20;99.90;;;;;;5176534;28;20048;-74
2022/04/23 01:43:10;;;;;;;51.28;28.77;;;8.20;99.90;;;;;;5177340;28;20034;-74
2022/04/23 01:45:44;;;;;;;48.70;27.52;;;8.20;99.90;;;;;;5176217;28;20049;-74
2022/04/23 01:48:16;;;;;;;51.90;27.65;;;8.20;99.90;;;;;;5178287;28;20113;-74
2022/04/23 01:50:50;;;;;;;56.90;30.38;;;8.20;99.90;;;;;;5173442;28;20038;-73
2022/04/23 01:53:25;;;;;;;;;;;8.20;99.90;;;;;;5176253;28;20418;-74
2022/04/23 01:55:57;;;;;;;49.70;26.65;;;8.00;99.90;;;;;;5177937;28;19920;-74
2022/04/23 01:58:30;;;;;;;51.88;28.13;;;8.10;99.90;;;;;;5179918;28;20038;-74
2022/04/23 02:01:03;;;;;;;52.90;28.00;;;8.10;99.90;;;;;;5170137;28;20072;-74
2022/04/23 02:03:35;;;;;;;51.92;27.60;;;8.10;99.90;;;;;;5177782;28;20304;-74
2022/04/23 02:06:08;;;;;;;50.67;28.77;;;8.10;99.90;;;;;;5185024;28;20555;-74
2022/04/23 02:08:40;;;;;;;52.90;28.85;;;8.10;99.90;;;;;;5178359;28;20049;-74
2022/04/23 02:11:13;;;;;;;48.15;26.17;;;8.00;99.90;;;;;;5178131;28;20060;-74
2022/04/23 02:13:46;;;;;;;48.63;27.15;;;8.00;99.90;;;;;;5184397;28;20069;-73
2022/04/23 02:16:18;;;;;;;53.10;27.50;;;8.00;99.90;;;;;;5178395;28;20038;-74
2022/04/23 02:18:51;;;;;;;52.15;28.00;;;8.00;99.90;;;;;;5182440;28;20050;-74
2022/04/23 02:21:26;;;;;;;48.33;28.27;;;8.00;99.90;;;;;;5182249;28;20049;-74
2022/04/23 02:24:00;;;;;;;47.97;27.08;;;8.00;99.90;;;;;;5178797;28;20094;-73
2022/04/23 02:26:32;;;;;;;47.90;28.13;;;7.90;99.90;;;;;;5173529;28;20046;-74
2022/04/23 02:29:05;;;;;;;50.30;28.52;;;7.90;99.90;;;;;;5183772;28;20049;-75
2022/04/23 02:31:37;;;;;;;50.03;28.17;;;7.90;99.90;;;;;;5175057;28;20081;-73
2022/04/23 02:34:10;;;;;;;50.75;27.92;;;7.90;99.90;;;;;;5179604;28;20056;-74
2022/04/23 02:36:43;;;;;;;52.85;28.77;;;7.80;99.90;;;;;;5193304;28;20906;-75
2022/04/23 02:39:16;;;;;;;50.00;28.23;;;7.80;99.90;;;;;;5179372;28;20058;-74
2022/04/23 02:41:48;;;;;;;52.97;29.10;;;7.80;99.90;;;;;;5175228;28;20049;-74
2022/04/23 02:44:20;;;;;;;54.50;28.23;;;7.80;99.90;;;;;;5178718;28;20049;-74
2022/04/23 02:46:53;;;;;;;46.35;27.77;;;7.80;99.90;;;;;;5177434;28;20050;-74
2022/04/23 02:49:25;;;;;;;49.45;27.77;;;7.90;99.90;;;;;;5176922;28;20077;-74
2022/04/23 02:51:57;;;;;;;49.40;28.33;;;7.90;99.90;;;;;;5178080;28;20067;-73
2022/04/23 02:54:30;;;;;;;48.30;28.08;;;7.90;99.90;;;;;;5178111;28;20145;-72
2022/04/23 02:57:02;;;;;;;48.35;27.83;;;8.00;99.90;;;;;;5173551;28;20046;-74
2022/04/23 02:59:34;;;;;;;51.55;29.77;;;8.00;99.90;;;;;;5177117;28;20045;-74
2022/04/23 03:02:07;;;;;;;50.13;27.58;;;8.00;99.90;;;;;;5168298;28;20763;-75
2022/04/23 03:04:40;;;;;;;46.70;27.50;;;8.00;99.90;;;;;;5176972;28;20581;-75
2022/04/23 03:07:12;;;;;;;53.17;29.52;;;8.00;99.90;;;;;;5178514;28;20044;-72
2022/04/23 03:09:44;;;;;;;49.03;27.77;;;8.00;99.90;;;;;;5183674;28;20457;-72
2022/04/23 03:12:17;;;;;;;52.50;28.83;;;8.00;99.90;;;;;;5177405;28;20045;-74
2022/04/23 03:14:49;;;;;;;52.10;29.42;;;8.00;99.90;;;;;;5178963;28;20045;-74
2022/04/23 03:17:22;;;;;;;52.05;29.25;;;7.90;99.90;;;;;;5179447;28;20363;-73
2022/04/23 03:19:55;;;;;;;47.80;27.52;;;7.90;99.90;;;;;;5182479;28;20105;-73
2022/04/23 03:22:27;;;;;;;47.63;27.00;;;7.90;99.90;;;;;;5182331;28;20046;-73
2022/04/23 03:25:00;;;;;;;50.92;28.00;;;7.90;99.90;;;;;;5179321;28;20053;-73
2022/04/23 03:27:32;;;;;;;47.00;27.45;;;7.80;99.90;;;;;;5183301;28;20205;-73
2022/04/23 03:30:06;;;;;;;49.83;26.52;;;7.80;99.90;;;;;;5184524;28;20041;-74
2022/04/23 03:32:39;;;;;;;48.63;27.23;;;7.80;99.90;;;;;;5191588;28;21088;-73
2022/04/23 03:35:11;;;;;;;54.45;28.70;;;7.90;99.90;;;;;;5182299;28;20042;-74
2022/04/23 03:37:44;;;;;;;51.13;29.17;;;7.80;99.90;;;;;;5170542;28;20843;-74
2022/04/23 03:40:17;;;;;;;51.90;28.50;;;7.80;99.90;;;;;;5178666;28;20386;-74
2022/04/23 03:42:49;;;;;;;51.35;28.73;;;7.80;99.90;;;;;;5172070;28;20046;-74
2022/04/23 03:45:23;;;;;;;45.95;25.60;;;7.80;99.90;;;;;;5180538;28;20064;-73
2022/04/23 03:47:56;;;;;;;48.53;27.52;;;7.70;99.90;;;;;;5184084;28;20123;-74
2022/04/23 03:50:29;;;;;;;55.05;29.02;;;7.80;99.90;;;;;;5183308;28;20042;-74
2022/04/23 03:53:02;;;;;;;44.97;25.92;;;7.80;99.90;;;;;;5172341;28;20049;-74
2022/04/23 03:55:35;;;;;;;49.50;27.23;;;7.80;99.90;;;;;;5180683;28;20049;-74
2022/04/23 03:58:08;;;;;;;46.58;26.15;;;7.70;99.90;;;;;;5182881;28;20049;-74
2022/04/23 04:00:40;;;;;;;46.03;25.55;;;7.70;99.90;;;;;;5179140;28;20073;-74
2022/04/23 04:03:13;;;;;;;46.95;26.50;;;7.80;99.90;;;;;;5179070;28;20050;-73
2022/04/23 04:05:47;;;;;;;47.78;26.05;;;7.70;99.90;;;;;;5182170;28;20501;-74
2022/04/23 04:08:20;;;;;;;44.58;25.80;;;7.70;99.90;;;;;;5196013;28;20045;-73
2022/04/23 04:10:52;;;;;;;51.30;27.42;;;7.70;99.90;;;;;;5181408;28;20042;-73
2022/04/23 04:13:25;;;;;;;52.28;26.83;;;7.70;99.90;;;;;;5181156;28;20053;-73
2022/04/23 04:15:57;;;;;;;50.65;26.40;;;7.60;99.90;;;;;;5185140;28;20513;-73
2022/04/23 04:18:30;;;;;;;48.33;26.90;;;7.70;99.90;;;;;;5178281;28;20037;-73
2022/04/23 04:21:02;;;;;;;56.53;28.98;;;7.70;99.90;;;;;;5183276;28;20045;-73
2022/04/23 04:23:35;;;;;;;51.50;27.85;;;7.70;99.90;;;;;;5184333;28;20820;-73
2022/04/23 04:26:08;;;;;;;48.10;25.63;;;7.70;99.90;;;;;;5180485;28;20717;-74
2022/04/23 04:28:40;;;;;;;49.47;26.20;;;7.70;99.90;;;;;;5182296;28;20543;-73
2022/04/23 04:34:03;;;;;;;57.60;28.92;;;7.70;99.90;;;;;;5185605;28;20583;-73
2022/04/23 04:36:36;;;;;;;50.88;24.75;;;7.70;99.90;;;;;;5181764;28;20053;-73
2022/04/23 04:39:08;;;;;;;47.90;26.75;;;7.70;99.90;;;;;;5181200;28;20068;-73
2022/04/23 04:41:41;;;;;;;49.83;25.75;;;7.70;99.90;;;;;;5179087;28;20064;-73
2022/04/23 04:44:14;;;;;;;43.03;23.33;;;7.70;99.90;;;;;;5177642;28;20057;-74
2022/04/23 04:46:46;;;;;;;46.03;24.90;;;7.60;99.90;;;;;;5178705;28;20508;-73
2022/04/23 04:49:19;;;;;;;47.88;24.60;;;7.60;99.90;;;;;;5171268;28;20572;-72
2022/04/23 04:51:52;;;;;;;48.05;23.77;;;7.60;99.90;;;;;;5180879;28;20050;-72
2022/04/23 04:54:24;;;;;;;53.45;26.83;;;7.50;99.90;;;;;;5180560;28;20132;-72
2022/04/23 04:56:57;;;;;;;52.72;25.92;;;7.50;99.90;;;;;;5196204;28;20046;-72
2022/04/23 04:59:34;;;;;;;52.05;26.50;;;7.50;99.90;;;;;;5179976;28;20046;-73
2022/04/23 05:02:07;;;;;;;47.70;25.77;;;7.40;99.90;;;;;;5172978;28;20060;-72
2022/04/23 05:04:39;;;;;;;54.28;26.75;;;7.50;99.90;;;;;;5178608;28;20049;-73
2022/04/23 05:07:12;;;;;;;50.65;25.38;;;7.50;99.90;;;;;;5174106;28;20053;-73
2022/04/23 05:09:45;;;;;;;46.63;23.90;;;7.60;99.90;;;;;;5177452;28;20049;-73
2022/04/23 05:12:17;;;;;;;50.58;24.50;;;7.60;99.90;;;;;;5181608;28;20050;-73
2022/04/23 05:14:49;;;;;;;44.97;23.75;;;7.60;99.90;;;;;;5195479;28;20053;-73
2022/04/23 05:17:23;;;;;;;48.88;24.48;;;7.60;99.90;;;;;;5180001;28;20054;-73
2022/04/23 05:19:55;;;;;;;50.47;25.70;;;7.60;99.90;;;;;;5174698;28;20046;-72
2022/04/23 05:22:27;;;;;;;47.90;24.58;;;7.60;99.90;;;;;;5177073;28;20394;-73
2022/04/23 05:25:00;;;;;;;53.53;25.55;;;7.70;99.90;;;;;;5177379;28;20052;-73
2022/04/23 05:27:32;;;;;;;53.95;24.40;;;7.60;99.90;;;;;;5177847;28;20072;-73
2022/04/23 05:30:05;;;;;;;55.15;26.23;;;7.60;99.90;;;;;;5181786;28;20042;-73
2022/04/23 05:32:37;;;;;;;52.28;27.05;;;7.60;99.90;;;;;;5182159;28;20516;-74
2022/04/23 05:35:15;;;;;;;50.90;25.02;;;7.60;99.90;;;;;;5179818;28;20042;-73
2022/04/23 05:37:48;;;;;;;57.33;25.63;;;7.70;99.90;;;;;;5181522;28;20065;-73
2022/04/23 05:40:20;;;;;;;49.05;24.02;;;7.70;99.90;;;;;;5174416;28;20715;-73
2022/04/23 05:42:55;;;;;;;51.72;25.10;;;7.60;99.90;;;;;;5178494;28;20048;-74
2022/04/23 05:45:29;;;;;;;53.90;26.10;;;7.60;99.90;;;;;;5179687;28;20034;-72
2022/04/23 05:48:01;;;;;;;56.03;27.40;;;7.70;99.90;;;;;;5181035;28;20054;-73
2022/04/23 05:50:33;;;;;;;55.00;26.40;;;7.70;99.90;;;;;;5182130;28;20049;-73
2022/04/23 05:53:06;;;;;;;52.00;25.95;;;7.70;99.90;;;;;;5184942;28;20060;-73
2022/04/23 05:55:38;;;;;;;48.10;22.88;;;7.70;99.90;;;;;;5186355;28;20053;-73
2022/04/23 05:58:10;;;;;;;44.40;22.73;;;7.70;99.90;;;;;;5191481;28;20041;-73
2022/04/23 06:00:43;;;;;;;46.60;22.98;;;7.70;99.90;;;;;;5182138;28;20049;-73
2022/04/23 06:03:15;;;;;;;47.15;23.05;;;7.70;99.90;;;;;;5194708;28;20045;-73
2022/04/23 06:05:48;;;;;;;50.25;22.38;;;7.80;99.90;;;;;;5174697;28;20050;-73
2022/04/23 06:08:20;;;;;;;48.08;22.45;;;7.80;99.90;;;;;;5179800;28;20065;-73
2022/04/23 06:10:52;;;;;;;45.83;22.73;;;7.90;99.90;;;;;;5182662;28;20061;-72
2022/04/23 06:13:25;;;;;;;45.88;22.08;;;7.80;99.90;;;;;;5183420;28;20041;-73
2022/04/23 06:15:58;;;;;;;49.72;24.90;;;7.80;99.90;;;;;;5182496;28;20053;-73
2022/04/23 06:18:30;;;;;;;48.38;22.90;;;7.80;99.90;;;;;;5182625;28;20424;-73
2022/04/23 06:21:02;;;;;;;44.88;22.50;;;7.80;99.90;;;;;;5179267;28;20042;-73
2022/04/23 06:23:34;;;;;;;48.70;21.80;;;7.80;99.90;;;;;;5176386;28;20045;-73
2022/04/23 06:26:07;;;;;;;51.38;22.35;;;7.90;99.90;;;;;;5183090;28;20046;-74
2022/04/23 06:28:39;;;;;;;48.80;23.95;;;7.80;99.90;;;;;;5181782;28;20519;-73
2022/04/23 06:31:12;;;;;;;47.83;22.15;;;7.90;99.90;;;;;;5182040;28;20034;-73
2022/04/23 06:33:44;;;;;;;42.97;22.13;;;7.80;99.90;;;;;;5183400;28;20049;-73
2022/04/23 06:36:17;;;;;;;45.10;22.77;;;7.90;99.90;;;;;;5179909;28;20041;-72
2022/04/23 06:38:49;;;;;;;42.50;20.92;;;7.90;99.90;;;;;;5180461;28;20042;-73
2022/04/23 06:41:26;;;;;;;46.00;22.02;;;8.00;99.90;;;;;;5161349;28;20073;-73
2022/04/23 06:43:58;;;;;;;49.40;21.13;;;8.00;99.90;;;;;;5178872;28;20046;-73
2022/04/23 06:46:30;;;;;;;46.95;20.45;;;8.00;99.90;;;;;;5183973;28;20054;-73
2022/04/23 06:49:05;;;;;;;43.83;21.15;;;8.00;99.90;;;;;;5178071;28;20054;-73
2022/04/23 06:51:38;;;;;;;42.22;20.60;;;8.00;99.90;;;;;;5176919;28;20052;-73
2022/04/23 06:54:10;;;;;;;44.88;21.25;;;8.10;99.90;;;;;;5175495;28;20045;-72
2022/04/23 06:56:43;;;;;;;47.63;20.80;;;8.10;99.90;;;;;;5173143;28;20061;-73
2022/04/23 06:59:15;;;;;;;41.30;20.15;;;8.10;99.90;;;;;;5177447;28;20494;-73
2022/04/23 07:01:47;;;;;;;49.60;20.48;;;8.10;99.90;;;;;;5181016;28;20072;-72
2022/04/23 07:04:20;;;;;;;50.47;22.58;;;8.10;99.90;;;;;;5174117;28;20892;-73
2022/04/23 07:06:52;;;;;;;45.35;21.45;;;8.20;99.90;;;;;;5177534;28;20048;-73
2022/04/23 07:09:25;;;;;;;47.63;22.58;;;8.30;99.90;;;;;;5179608;28;20626;-72
2022/04/23 07:11:58;;;;;;;46.00;21.80;;;8.30;99.90;;;;;;5178243;28;20045;-72
2022/04/23 07:14:30;;;;;;;49.72;23.15;;;8.20;99.90;;;;;;5181140;28;20476;-72
2022/04/23 07:17:07;;;;;;;49.67;22.92;;;8.20;99.90;;;;;;5179432;28;20547;-72
2022/04/23 07:19:40;;;;;;;60.85;24.73;;;8.20;99.90;;;;;;5180992;28;20202;-73
2022/04/23 07:22:13;;;;;;;50.53;22.92;;;8.30;99.90;;;;;;5178011;28;20799;-73
2022/04/23 07:24:48;;;;;;;48.65;22.08;;;8.30;99.90;;;;;;5182284;28;20046;-72
2022/04/23 07:27:20;;;;;;;41.83;20.20;;;8.30;99.90;;;;;;5185079;28;20038;-73
2022/04/23 07:29:54;;;;;;;46.05;21.42;;;8.40;99.90;;;;;;5187472;23;20432;31
2022/04/23 07:32:26;;;;;;;;;;;8.40;99.90;;;;;;5127520;28;20047;-72
2022/04/23 07:37:49;;;;;;;44.70;20.58;;;8.50;99.90;;;;;;5106387;28;20055;-73
2022/04/23 07:40:22;;;;;;;42.80;21.17;;;8.50;99.90;;;;;;5106525;28;20066;-73
2022/04/23 07:42:55;;;;;;;48.25;22.50;;;8.60;99.90;;;;;;5106782;28;20047;-72
2022/04/23 07:45:27;;;;;;;50.10;21.85;;;8.60;99.90;;;;;;5105116;28;20047;-72
2022/04/23 07:47:59;;;;;;;47.05;22.08;;;8.70;99.90;;;;;;5102412;28;20047;-72
2022/04/23 07:50:37;;;;;;;42.53;21.30;;;8.70;99.90;;;;;;5101928;28;20050;-72
2022/04/23 07:53:11;;;;;;;47.55;21.85;;;8.70;99.90;;;;;;5106240;28;20051;-72
2022/04/23 07:55:44;;;;;;;45.47;21.75;;;8.60;99.90;;;;;;5090922;28;21259;-72
2022/04/23 07:58:16;;;;;;;42.17;20.90;;;8.70;99.90;;;;;;5092994;28;20047;-73
2022/04/23 08:00:49;;;;;;;38.70;20.73;;;8.70;99.90;;;;;;5108753;28;20048;-73
2022/04/23 08:03:22;;;;;;;45.13;22.63;;;8.70;99.90;;;;;;5109126;28;20118;-72
2022/04/23 08:05:54;;;;;;;42.53;21.98;;;8.80;99.90;;;;;;5107016;28;20047;-72
2022/04/23 08:08:27;;;;;;;49.25;24.27;;;8.80;99.90;;;;;;5095721;29;20550;-72
2022/04/23 08:10:59;;;;;;;45.95;23.00;;;8.90;99.90;;;;;;5108465;28;20047;-73
2022/04/23 08:13:32;;;;;;;46.03;24.23;;;8.80;99.90;;;;;;5109476;28;20074;-72
2022/04/23 08:16:05;;;;;;;47.65;23.77;;;8.90;99.90;;;;;;5106625;28;20055;-72
2022/04/23 08:18:38;;;;;;;48.20;24.30;;;8.90;99.90;;;;;;5110236;28;20051;-72
2022/04/23 08:21:15;;;;;;;43.78;23.40;;;9.00;99.90;;;;;;5110061;28;20511;-72
2022/04/23 08:23:48;;;;;;;48.25;24.98;;;9.00;99.90;;;;;;5095242;28;20431;-73
2022/04/23 08:26:20;;;;;;;44.53;23.50;;;9.10;99.90;;;;;;5107681;28;20047;-72
2022/04/23 08:31:44;;;;;;;41.97;22.67;;;9.20;99.90;;;;;;5108424;28;20066;-72
2022/04/23 08:34:16;;;;;;;44.25;22.77;;;9.20;99.90;;;;;;5111800;28;20383;-72
2022/04/23 08:36:50;;;;;;;43.22;24.80;;;9.30;99.90;;;;;;5105386;28;20062;-73
2022/04/23 08:39:22;;;;;;;41.10;22.75;;;9.40;99.90;;;;;;5112155;28;20035;-73
2022/04/23 08:41:55;;;;;;;40.75;23.00;;;9.30;99.90;;;;;;5107548;28;20498;-72
2022/04/23 08:44:27;;;;;;;44.75;24.15;;;9.40;99.90;;;;;;5105352;28;20047;-72
2022/04/23 08:47:00;;;;;;;42.50;23.77;;;9.40;99.90;;;;;;5103955;28;20993;-73
2022/04/23 08:49:35;;;;;;;42.67;24.60;;;9.50;99.90;;;;;;5090736;28;20047;-72
2022/04/23 08:52:15;;;;;;;43.83;24.98;;;9.60;99.90;;;;;;5105092;28;20384;-72
2022/04/23 08:54:50;;;;;;;42.20;23.65;;;9.60;99.90;;;;;;5094513;28;20597;-72
2022/04/23 08:57:23;;;;;;;41.00;23.48;;;9.70;99.90;;;;;;5107499;28;20131;-72
2022/04/23 08:59:56;;;;;;;40.20;23.30;;;9.80;99.90;;;;;;5095616;29;20956;-72
2022/04/23 09:02:30;;;;;;;41.60;23.83;;;9.90;99.90;;;;;;5104321;28;20043;-73
2022/04/23 09:05:03;;;;;;;39.13;22.23;;;9.90;99.90;;;;;;5106915;28;20042;-72
2022/04/23 09:07:35;;;;;;;36.50;22.02;;;9.90;99.90;;;;;;5090509;28;20047;-72
2022/04/23 09:10:08;;;;;;;40.28;22.48;;;9.90;99.90;;;;;;5106464;28;20491;-73
2022/04/23 09:12:56;;;;;;;40.50;22.27;;;10.00;99.90;;;;;;5107089;28;20486;-72
2022/04/23 09:24:26;;;;;;;34.08;20.30;;;10.30;99.90;;;;;;5059938;29;20428;-72
2022/04/23 09:27:06;;;;;;;33.95;19.88;;;10.20;99.90;;;;;;5059614;29;20052;-72
2022/04/23 09:29:40;;;;;;;33.00;19.10;;;10.30;99.90;;;;;;5072576;29;20479;-72
2022/04/23 09:32:19;;;;;;;32.83;19.40;;;10.40;99.90;;;;;;5107676;28;20050;-72
2022/04/23 09:35:09;;;;;;;33.72;20.20;;;10.60;99.90;;;;;;5108505;28;20515;-72
2022/04/23 09:40:33;;;;;;;29.00;17.98;;;11.00;99.90;;;;;;5107071;28;20050;-72
2022/04/23 09:43:09;;;;;;;29.63;19.05;;;11.20;99.90;;;;;;5111823;28;20419;-72
2022/04/23 09:45:42;;;;;;;29.33;18.83;;;11.20;99.90;;;;;;5107183;28;20054;-72
2022/04/23 09:48:18;;;;;;;29.85;17.75;;;11.20;99.90;;;;;;5110356;28;20543;-72
2022/04/23 09:50:51;;;;;;;26.27;16.75;;;11.20;99.90;;;;;;5107345;28;20051;-72
2022/04/23 09:53:28;;;;;;;26.58;16.30;;;11.30;99.90;;;;;;5089829;28;20047;-72
2022/04/23 09:56:03;;;;;;;25.95;16.02;;;11.40;99.90;;;;;;5108073;28;20051;-72
2022/04/23 09:58:36;;;;;;;24.65;15.90;;;11.40;99.90;;;;;;5106723;28;20055;-72
2022/04/23 10:01:09;;;;;;;23.90;15.82;;;11.50;99.90;;;;;;5092654;28;20043;-72
2022/04/23 10:03:46;;;;;;;16.85;11.38;;;11.60;99.90;;;;;;5109684;28;20508;-73
2022/04/23 10:06:21;;;;;;;26.58;14.95;;;11.70;99.90;;;;;;5107033;28;20054;-72
2022/04/23 10:08:57;;;;;;;25.50;14.75;;;11.70;99.90;;;;;;5104540;28;20408;-73
2022/04/23 10:11:30;;;;;;;23.20;15.20;;;11.80;99.90;;;;;;5107345;28;20048;-73
2022/04/23 10:14:04;;;;;;;23.40;14.18;;;11.90;99.90;;;;;;5108404;28;20047;-73
2022/04/23 10:16:40;;;;;;;22.75;13.27;;;12.10;99.90;;;;;;5107709;28;20066;-73
2022/04/23 10:19:14;;;;;;;20.65;13.55;;;12.30;99.60;;;;;;5095099;29;20558;-73
2022/04/23 10:22:02;;;;;;;19.77;12.77;;;12.50;98.70;;;;;;5105118;28;20114;-72
2022/04/23 10:24:52;;;;;;;23.95;13.45;;;12.80;96.70;;;;;;5108202;28;20086;-73
2022/04/23 10:27:25;;;;;;;21.55;12.80;;;12.90;95.30;;;;;;5106129;28;20046;-72
2022/04/23 10:30:02;;;;;;;21.15;14.23;;;13.00;95.20;;;;;;5094505;28;20066;-73
2022/04/23 10:32:39;;;;;;;22.42;14.38;;;13.20;94.90;;;;;;5106796;28;20062;-73
2022/04/23 10:35:17;;;;;;;22.85;14.50;;;13.40;93.40;;;;;;5106946;28;20055;-72
2022/04/23 10:37:50;;;;;;;21.17;14.57;;;13.50;92.30;;;;;;5106731;28;20051;-73
2022/04/23 10:40:22;;;;;;;24.42;14.85;;;13.60;92.90;;;;;;5079001;28;20062;-73
2022/04/23 10:43:04;;;;;;;20.80;13.23;;;13.70;92.10;;;;;;5093876;28;20059;-72
2022/04/23 10:45:41;;;;;;;24.17;15.18;;;13.70;90.60;;;;;;5106829;28;20559;-73
2022/04/23 10:48:30;;;;;;;20.02;14.07;;;13.60;90.70;;;;;;5105349;28;20047;-73
2022/04/23 10:51:16;;;;;;;22.45;14.32;;;13.40;90.40;;;;;;5088435;29;20420;-72
2022/04/23 10:53:50;;;;;;;21.60;13.82;;;13.50;90.70;;;;;;5109351;28;20056;-73
2022/04/23 10:56:23;;;;;;;21.55;14.30;;;13.50;91.00;;;;;;5108027;28;20055;-73
2022/04/23 10:58:56;;;;;;;20.33;13.23;;;13.50;90.90;;;;;;5108465;28;20055;-73
2022/04/23 11:01:30;;;;;;;19.25;13.32;;;13.60;90.80;;;;;;5105769;28;20066;-73
2022/04/23 11:04:05;;;;;;;19.70;13.07;;;13.60;90.30;;;;;;5107641;28;20058;-74
2022/04/23 11:12:52;;;;;;;20.98;14.27;;;13.40;90.70;;;;;;5094446;29;20071;-73
2022/04/23 11:15:25;;;;;;;23.83;13.40;;;13.40;90.60;;;;;;5109876;28;20085;-73
2022/04/23 11:17:58;;;;;;;20.48;13.65;;;13.60;90.90;;;;;;5106410;28;20420;-73
2022/04/23 11:20:34;;;;;;;24.20;15.15;;;13.70;90.40;;;;;;5105587;28;20930;-73
2022/04/23 11:23:08;;;;;;;19.63;12.95;;;13.80;90.10;;;;;;5090479;28;20054;-73
2022/04/23 11:25:55;;;;;;;21.17;14.23;;;13.90;89.70;;;;;;5104430;28;20054;-73
2022/04/23 11:28:27;;;;;;;21.08;13.43;;;14.00;87.40;;;;;;5106729;28;20419;-73
2022/04/23 11:31:10;;;;;;;23.00;14.93;;;14.00;88.20;;;;;;5106448;28;20054;-73
2022/04/23 11:34:12;;;;;;;26.10;14.80;;;14.10;86.80;;;;;;5111661;28;20066;-73
2022/04/23 11:36:44;;;;;;;20.13;14.05;;;14.30;86.10;;;;;;5110189;28;20055;-73
2022/04/23 11:39:17;;;;;;;22.63;15.00;;;14.40;86.80;;;;;;5112615;28;20054;-73
2022/04/23 11:41:51;;;;;;;33.17;16.00;;;14.30;86.00;;;;;;5113094;28;20963;-73
2022/04/23 11:47:39;;;;;;;24.83;16.52;;;14.40;85.00;;;;;;5115381;28;20067;-73
2022/04/23 11:50:17;;;;;;;28.25;17.15;;;14.50;84.70;;;;;;5112407;28;20051;-73
2022/04/23 11:53:05;;;;;;;28.52;17.80;;;14.60;85.00;;;;;;5115142;28;20047;-73
2022/04/23 11:55:38;;;;;;;33.95;18.20;;;14.60;83.50;;;;;;5114696;28;20051;-73
2022/04/23 11:58:10;;;;;;;30.17;18.98;;;14.60;84.70;;;;;;5113449;28;20051;-73
2022/04/23 12:00:46;;;;;;;32.67;19.55;;;14.60;84.60;;;;;;5109689;28;20050;-73
2022/04/23 12:03:25;;;;;;;33.22;20.70;;;14.60;84.50;;;;;;5109675;28;20534;-73
2022/04/23 12:05:58;;;;;;;31.63;20.92;;;14.60;83.70;;;;;;5096939;28;20504;-73
2022/04/23 12:08:31;;;;;;;34.35;21.50;;;14.60;84.20;;;;;;5110060;28;20043;-72
2022/04/23 12:11:18;;;;;;;33.55;22.08;;;14.60;83.80;;;;;;5114713;28;20504;-73
2022/04/23 12:13:50;;;;;;;38.08;22.55;;;14.70;83.90;;;;;;5108607;28;20539;-73
2022/04/23 12:16:42;;;;;;;32.80;22.05;;;14.70;83.50;;;;;;5112968;28;20500;-72
2022/04/23 12:19:17;;;;;;;32.03;21.80;;;15.00;82.00;;;;;;5108271;28;20070;-73
2022/04/23 12:21:57;;;;;;;31.58;20.52;;;15.10;82.20;;;;;;5111470;28;20054;-73
2022/04/23 12:24:35;;;;;;;31.27;20.98;;;15.30;80.60;;;;;;5097956;29;20055;-73
2022/04/23 12:27:08;;;;;;;29.70;18.85;;;15.50;81.00;;;;;;5106866;28;20626;-73
2022/04/23 12:41:15;;;;;;;31.55;19.83;;;15.30;80.50;;;;;;5105046;28;20058;-73
2022/04/23 12:43:47;;;;;;;32.53;20.52;;;15.20;80.60;;;;;;5103102;28;20052;-73
2022/04/23 12:46:20;;;;;;;31.75;21.05;;;15.20;80.90;;;;;;5106058;28;20050;-73
2022/04/23 12:48:57;;;;;;;31.77;22.00;;;15.10;80.80;;;;;;5106819;28;20046;-73
2022/04/23 12:51:30;;;;;;;39.53;23.30;;;15.10;81.00;;;;;;5107295;28;20065;-73
2022/04/23 12:54:12;;;;;;;35.65;22.75;;;15.00;81.40;;;;;;5106977;28;20484;-73
2022/04/23 12:56:44;;;;;;;36.47;22.77;;;15.00;81.30;;;;;;5105066;28;20051;-73
2022/04/23 12:59:17;;;;;;;36.75;23.45;;;15.00;81.30;;;;;;5106752;28;20043;-73
2022/04/23 13:01:50;;;;;;;38.30;23.92;;;15.10;81.70;;;;;;5108277;28;20051;-73
2022/04/23 13:04:23;;;;;;;38.90;24.85;;;15.10;81.20;;;;;;5106927;28;20581;-73
2022/04/23 13:09:47;;;;;;;36.72;23.75;;;15.30;80.40;;;;;;5107977;28;20487;-72
2022/04/23 13:12:20;;;;;;;36.97;23.92;;;15.70;80.60;;;;;;5108589;28;20055;-73
2022/04/23 13:14:52;;;;;;;35.95;23.90;;;16.40;78.40;;;;;;5105507;28;20055;-73
2022/04/23 13:17:25;;;;;;;34.58;22.60;;;16.40;77.50;;;;;;5168628;22;20045;-76
2022/04/23 13:19:57;;;;;;;33.75;23.02;;;16.80;77.30;;;;;;5183722;28;20678;-76
2022/04/23 13:22:30;;;;;;;35.28;22.95;;;17.20;75.70;;;;;;5202977;28;20038;-77
2022/04/23 13:25:04;;;;;;;32.53;22.07;;;17.20;74.80;;;;;;5177867;28;20045;-75
2022/04/23 13:27:37;;;;;;;35.72;22.77;;;17.20;73.90;;;;;;5168615;28;20521;-76
2022/04/23 13:30:11;;;;;;;37.50;23.20;;;17.00;74.60;;;;;;5202962;28;20042;-77
2022/04/23 13:32:46;;;;;;;30.40;21.75;;;17.20;74.00;;;;;;5189267;28;20056;-78
2022/04/23 13:35:20;;;;;;;;;;;17.40;73.50;;;;;;5172210;28;20834;-77
2022/04/23 13:37:52;;;;;;;33.97;23.55;;;17.40;71.60;;;;;;5204036;28;19935;-76
2022/04/23 13:40:25;;;;;;;37.05;22.85;;;17.20;72.90;;;;;;5202546;28;20037;-77
2022/04/23 13:42:57;;;;;;;33.53;23.10;;;16.80;73.40;;;;;;5189178;28;20896;-76
2022/04/23 13:45:31;;;;;;;39.00;24.67;;;16.60;74.40;;;;;;5204249;28;20053;-76
2022/04/23 13:48:05;;;;;;;35.60;23.25;;;16.40;75.00;;;;;;5186996;28;20052;-76
2022/04/23 13:50:37;;;;;;;35.92;23.33;;;16.20;75.40;;;;;;5201695;28;20668;-76
2022/04/23 13:53:10;;;;;;;38.33;24.23;;;16.00;75.40;;;;;;5188539;28;20060;-76